sensor_id;sensor_type;location;lat;lon;timestamp;P1;durP1;ratioP1;P2;durP2;ratioP2
83340;SDS011;73263;50.882;5.984;2023-12-04T00:00:32;14.80;;;8.17;;
83340;SDS011;73263;50.882;5.984;2023-12-04T00:02:57;16.37;;;7.80;;
83340;SDS011;73263;50.882;5.984;2023-12-04T00:05:23;17.37;;;7.87;;
83340;SDS011;73263;50.882;5.984;2023-12-04T00:07:48;17.93;;;8.37;;
83340;SDS011;73263;50.882;5.984;2023-12-04T00:10:13;17.20;;;8.03;;
83340;SDS011;73263;50.882;5.984;2023-12-04T00:12:39;14.60;;;8.47;;
83340;SDS011;73263;50.882;5.984;2023-12-04T00:15:05;13.00;;;7.80;;
83340;SDS011;73263;50.882;5.984;2023-12-04T00:17:30;18.35;;;7.50;;
83340;SDS011;73263;50.882;5.984;2023-12-04T00:19:56;18.10;;;7.50;;
83340;SDS011;73263;50.882;5.984;2023-12-04T00:22:21;15.60;;;8.05;;
83340;SDS011;73263;50.882;5.984;2023-12-04T00:24:48;16.53;;;8.37;;
83340;SDS011;73263;50.882;5.984;2023-12-04T00:27:14;14.90;;;7.60;;
83340;SDS011;73263;50.882;5.984;2023-12-04T00:29:39;15.93;;;8.13;;
83340;SDS011;73263;50.882;5.984;2023-12-04T00:32:04;15.17;;;7.97;;
83340;SDS011;73263;50.882;5.984;2023-12-04T00:34:30;15.55;;;7.72;;
83340;SDS011;73263;50.882;5.984;2023-12-04T00:36:56;16.10;;;7.80;;
83340;SDS011;73263;50.882;5.984;2023-12-04T00:39:21;13.77;;;7.50;;
83340;SDS011;73263;50.882;5.984;2023-12-04T00:41:47;14.17;;;7.50;;
83340;SDS011;73263;50.882;5.984;2023-12-04T00:44:12;14.77;;;7.40;;
83340;SDS011;73263;50.882;5.984;2023-12-04T00:46:37;12.68;;;7.00;;
83340;SDS011;73263;50.882;5.984;2023-12-04T00:49:03;12.67;;;6.80;;
83340;SDS011;73263;50.882;5.984;2023-12-04T00:51:28;12.33;;;6.87;;
83340;SDS011;73263;50.882;5.984;2023-12-04T00:53:53;12.10;;;6.20;;
83340;SDS011;73263;50.882;5.984;2023-12-04T00:56:19;12.13;;;7.17;;
83340;SDS011;73263;50.882;5.984;2023-12-04T00:58:45;14.80;;;6.88;;
83340;SDS011;73263;50.882;5.984;2023-12-04T01:01:11;12.03;;;6.23;;
83340;SDS011;73263;50.882;5.984;2023-12-04T01:03:37;11.63;;;6.45;;
83340;SDS011;73263;50.882;5.984;2023-12-04T01:06:03;12.90;;;7.03;;
83340;SDS011;73263;50.882;5.984;2023-12-04T01:08:28;12.55;;;6.43;;
83340;SDS011;73263;50.882;5.984;2023-12-04T01:10:53;12.30;;;6.40;;
83340;SDS011;73263;50.882;5.984;2023-12-04T01:13:19;14.07;;;6.43;;
83340;SDS011;73263;50.882;5.984;2023-12-04T01:15:44;12.70;;;6.03;;
83340;SDS011;73263;50.882;5.984;2023-12-04T01:18:11;11.88;;;6.20;;
83340;SDS011;73263;50.882;5.984;2023-12-04T01:20:36;10.80;;;6.30;;
83340;SDS011;73263;50.882;5.984;2023-12-04T01:23:02;10.70;;;6.37;;
83340;SDS011;73263;50.882;5.984;2023-12-04T01:25:27;10.37;;;6.07;;
83340;SDS011;73263;50.882;5.984;2023-12-04T01:27:52;12.93;;;6.37;;
83340;SDS011;73263;50.882;5.984;2023-12-04T01:30:18;12.13;;;6.00;;
83340;SDS011;73263;50.882;5.984;2023-12-04T01:32:43;11.02;;;5.72;;
83340;SDS011;73263;50.882;5.984;2023-12-04T01:35:08;12.90;;;6.17;;
83340;SDS011;73263;50.882;5.984;2023-12-04T01:37:34;11.20;;;6.07;;
83340;SDS011;73263;50.882;5.984;2023-12-04T01:39:59;11.40;;;5.97;;
83340;SDS011;73263;50.882;5.984;2023-12-04T01:42:24;11.20;;;5.80;;
83340;SDS011;73263;50.882;5.984;2023-12-04T01:44:50;10.33;;;5.27;;
83340;SDS011;73263;50.882;5.984;2023-12-04T01:47:15;10.30;;;6.13;;
83340;SDS011;73263;50.882;5.984;2023-12-04T01:49:41;10.93;;;6.20;;
83340;SDS011;73263;50.882;5.984;2023-12-04T01:52:07;9.60;;;5.53;;
83340;SDS011;73263;50.882;5.984;2023-12-04T01:54:32;10.17;;;5.40;;
83340;SDS011;73263;50.882;5.984;2023-12-04T01:56:58;11.00;;;6.20;;
83340;SDS011;73263;50.882;5.984;2023-12-04T01:59:23;10.30;;;5.73;;
83340;SDS011;73263;50.882;5.984;2023-12-04T02:01:50;9.48;;;5.60;;
83340;SDS011;73263;50.882;5.984;2023-12-04T02:04:17;10.38;;;5.38;;
83340;SDS011;73263;50.882;5.984;2023-12-04T02:06:43;10.95;;;6.03;;
83340;SDS011;73263;50.882;5.984;2023-12-04T02:09:08;9.90;;;5.13;;
83340;SDS011;73263;50.882;5.984;2023-12-04T02:11:37;10.07;;;5.15;;
83340;SDS011;73263;50.882;5.984;2023-12-04T02:14:04;8.30;;;5.00;;
83340;SDS011;73263;50.882;5.984;2023-12-04T02:16:30;9.30;;;4.90;;
83340;SDS011;73263;50.882;5.984;2023-12-04T02:18:57;8.48;;;4.72;;
83340;SDS011;73263;50.882;5.984;2023-12-04T02:21:22;8.17;;;4.80;;
83340;SDS011;73263;50.882;5.984;2023-12-04T02:23:48;9.30;;;4.73;;
83340;SDS011;73263;50.882;5.984;2023-12-04T02:26:15;10.88;;;5.22;;
83340;SDS011;73263;50.882;5.984;2023-12-04T02:28:46;8.98;;;4.93;;
83340;SDS011;73263;50.882;5.984;2023-12-04T02:31:17;7.40;;;4.10;;
83340;SDS011;73263;50.882;5.984;2023-12-04T02:33:44;8.00;;;4.18;;
83340;SDS011;73263;50.882;5.984;2023-12-04T02:36:10;9.77;;;4.57;;
83340;SDS011;73263;50.882;5.984;2023-12-04T02:38:36;8.35;;;4.78;;
83340;SDS011;73263;50.882;5.984;2023-12-04T02:41:02;9.23;;;4.95;;
83340;SDS011;73263;50.882;5.984;2023-12-04T02:43:27;8.90;;;4.27;;
83340;SDS011;73263;50.882;5.984;2023-12-04T02:45:52;9.00;;;4.57;;
83340;SDS011;73263;50.882;5.984;2023-12-04T02:48:18;7.43;;;4.20;;
83340;SDS011;73263;50.882;5.984;2023-12-04T02:50:43;9.13;;;4.70;;
83340;SDS011;73263;50.882;5.984;2023-12-04T02:53:08;8.63;;;4.80;;
83340;SDS011;73263;50.882;5.984;2023-12-04T02:55:33;7.80;;;4.40;;
83340;SDS011;73263;50.882;5.984;2023-12-04T02:57:59;8.37;;;4.23;;
83340;SDS011;73263;50.882;5.984;2023-12-04T03:00:24;7.97;;;4.13;;
83340;SDS011;73263;50.882;5.984;2023-12-04T03:02:49;7.13;;;4.33;;
83340;SDS011;73263;50.882;5.984;2023-12-04T03:05:15;8.57;;;4.30;;
83340;SDS011;73263;50.882;5.984;2023-12-04T03:07:40;10.17;;;4.60;;
83340;SDS011;73263;50.882;5.984;2023-12-04T03:10:05;7.40;;;4.10;;
83340;SDS011;73263;50.882;5.984;2023-12-04T03:12:31;9.73;;;4.35;;
83340;SDS011;73263;50.882;5.984;2023-12-04T03:14:56;7.13;;;4.17;;
83340;SDS011;73263;50.882;5.984;2023-12-04T03:17:22;7.90;;;4.00;;
83340;SDS011;73263;50.882;5.984;2023-12-04T03:19:47;7.50;;;4.10;;
83340;SDS011;73263;50.882;5.984;2023-12-04T03:22:12;8.33;;;3.70;;
83340;SDS011;73263;50.882;5.984;2023-12-04T03:24:38;9.25;;;4.40;;
83340;SDS011;73263;50.882;5.984;2023-12-04T03:27:03;6.50;;;3.53;;
83340;SDS011;73263;50.882;5.984;2023-12-04T03:29:29;6.80;;;4.07;;
83340;SDS011;73263;50.882;5.984;2023-12-04T03:31:54;8.00;;;3.90;;
83340;SDS011;73263;50.882;5.984;2023-12-04T03:34:19;8.30;;;3.63;;
83340;SDS011;73263;50.882;5.984;2023-12-04T03:36:45;6.53;;;3.63;;
83340;SDS011;73263;50.882;5.984;2023-12-04T03:39:10;6.57;;;3.37;;
83340;SDS011;73263;50.882;5.984;2023-12-04T03:41:36;7.87;;;3.77;;
83340;SDS011;73263;50.882;5.984;2023-12-04T03:44:01;6.60;;;3.80;;
83340;SDS011;73263;50.882;5.984;2023-12-04T03:46:26;6.77;;;3.80;;
83340;SDS011;73263;50.882;5.984;2023-12-04T03:48:52;6.40;;;3.63;;
83340;SDS011;73263;50.882;5.984;2023-12-04T03:51:17;7.93;;;3.53;;
83340;SDS011;73263;50.882;5.984;2023-12-04T03:53:42;5.73;;;3.23;;
83340;SDS011;73263;50.882;5.984;2023-12-04T03:56:08;7.67;;;3.80;;
83340;SDS011;73263;50.882;5.984;2023-12-04T03:58:34;5.97;;;3.60;;
83340;SDS011;73263;50.882;5.984;2023-12-04T04:00:59;5.93;;;3.20;;
83340;SDS011;73263;50.882;5.984;2023-12-04T04:03:24;6.10;;;3.30;;
83340;SDS011;73263;50.882;5.984;2023-12-04T04:05:50;5.53;;;3.20;;
83340;SDS011;73263;50.882;5.984;2023-12-04T04:08:15;5.90;;;3.43;;
83340;SDS011;73263;50.882;5.984;2023-12-04T04:10:40;6.37;;;3.20;;
83340;SDS011;73263;50.882;5.984;2023-12-04T04:13:05;6.73;;;3.50;;
83340;SDS011;73263;50.882;5.984;2023-12-04T04:15:31;6.03;;;3.30;;
83340;SDS011;73263;50.882;5.984;2023-12-04T04:17:56;7.10;;;3.60;;
83340;SDS011;73263;50.882;5.984;2023-12-04T04:20:22;5.47;;;3.13;;
83340;SDS011;73263;50.882;5.984;2023-12-04T04:22:48;5.70;;;3.22;;
83340;SDS011;73263;50.882;5.984;2023-12-04T04:25:13;5.87;;;3.50;;
83340;SDS011;73263;50.882;5.984;2023-12-04T04:27:39;6.00;;;2.90;;
83340;SDS011;73263;50.882;5.984;2023-12-04T04:30:04;6.77;;;3.00;;
83340;SDS011;73263;50.882;5.984;2023-12-04T04:32:30;5.83;;;3.60;;
83340;SDS011;73263;50.882;5.984;2023-12-04T04:34:55;5.33;;;3.23;;
83340;SDS011;73263;50.882;5.984;2023-12-04T04:37:21;6.00;;;3.10;;
83340;SDS011;73263;50.882;5.984;2023-12-04T04:39:46;5.87;;;3.00;;
83340;SDS011;73263;50.882;5.984;2023-12-04T04:42:11;6.13;;;3.23;;
83340;SDS011;73263;50.882;5.984;2023-12-04T04:44:37;5.73;;;3.13;;
83340;SDS011;73263;50.882;5.984;2023-12-04T04:47:02;6.03;;;3.03;;
83340;SDS011;73263;50.882;5.984;2023-12-04T04:49:28;5.93;;;3.27;;
83340;SDS011;73263;50.882;5.984;2023-12-04T04:51:53;5.03;;;2.77;;
83340;SDS011;73263;50.882;5.984;2023-12-04T04:54:19;6.43;;;3.13;;
83340;SDS011;73263;50.882;5.984;2023-12-04T04:56:44;5.53;;;3.00;;
83340;SDS011;73263;50.882;5.984;2023-12-04T04:59:10;6.18;;;2.90;;
83340;SDS011;73263;50.882;5.984;2023-12-04T05:01:35;6.37;;;2.73;;
83340;SDS011;73263;50.882;5.984;2023-12-04T05:04:01;4.80;;;2.80;;
83340;SDS011;73263;50.882;5.984;2023-12-04T05:06:27;5.03;;;2.63;;
83340;SDS011;73263;50.882;5.984;2023-12-04T05:08:52;5.00;;;2.60;;
83340;SDS011;73263;50.882;5.984;2023-12-04T05:11:18;5.45;;;2.78;;
83340;SDS011;73263;50.882;5.984;2023-12-04T05:13:46;6.20;;;2.53;;
83340;SDS011;73263;50.882;5.984;2023-12-04T05:16:12;5.13;;;2.80;;
83340;SDS011;73263;50.882;5.984;2023-12-04T05:18:40;4.77;;;2.60;;
83340;SDS011;73263;50.882;5.984;2023-12-04T05:21:08;4.68;;;2.50;;
83340;SDS011;73263;50.882;5.984;2023-12-04T05:23:34;4.75;;;2.63;;
83340;SDS011;73263;50.882;5.984;2023-12-04T05:25:59;6.33;;;2.60;;
83340;SDS011;73263;50.882;5.984;2023-12-04T05:28:25;4.77;;;2.50;;
83340;SDS011;73263;50.882;5.984;2023-12-04T05:30:50;5.40;;;2.50;;
83340;SDS011;73263;50.882;5.984;2023-12-04T05:33:15;5.10;;;2.50;;
83340;SDS011;73263;50.882;5.984;2023-12-04T05:35:40;4.63;;;2.53;;
83340;SDS011;73263;50.882;5.984;2023-12-04T05:38:06;4.57;;;2.23;;
83340;SDS011;73263;50.882;5.984;2023-12-04T05:40:32;4.72;;;2.60;;
83340;SDS011;73263;50.882;5.984;2023-12-04T05:42:58;5.33;;;2.40;;
83340;SDS011;73263;50.882;5.984;2023-12-04T05:45:23;4.30;;;2.20;;
83340;SDS011;73263;50.882;5.984;2023-12-04T05:47:48;5.63;;;2.20;;
83340;SDS011;73263;50.882;5.984;2023-12-04T05:50:14;5.90;;;2.20;;
83340;SDS011;73263;50.882;5.984;2023-12-04T05:52:39;4.20;;;2.47;;
83340;SDS011;73263;50.882;5.984;2023-12-04T05:55:05;3.83;;;2.10;;
83340;SDS011;73263;50.882;5.984;2023-12-04T05:57:30;6.60;;;2.28;;
83340;SDS011;73263;50.882;5.984;2023-12-04T05:59:56;6.40;;;2.30;;
83340;SDS011;73263;50.882;5.984;2023-12-04T06:02:21;5.70;;;2.43;;
83340;SDS011;73263;50.882;5.984;2023-12-04T06:04:46;7.33;;;2.20;;
83340;SDS011;73263;50.882;5.984;2023-12-04T06:07:12;6.90;;;2.30;;
83340;SDS011;73263;50.882;5.984;2023-12-04T06:09:37;7.15;;;2.33;;
83340;SDS011;73263;50.882;5.984;2023-12-04T06:12:03;5.40;;;2.20;;
83340;SDS011;73263;50.882;5.984;2023-12-04T06:14:33;5.10;;;2.30;;
83340;SDS011;73263;50.882;5.984;2023-12-04T06:16:59;9.37;;;2.00;;
83340;SDS011;73263;50.882;5.984;2023-12-04T06:19:24;4.97;;;2.20;;
83340;SDS011;73263;50.882;5.984;2023-12-04T06:21:49;6.33;;;2.20;;
83340;SDS011;73263;50.882;5.984;2023-12-04T06:24:15;5.60;;;2.23;;
83340;SDS011;73263;50.882;5.984;2023-12-04T06:26:41;8.48;;;1.85;;
83340;SDS011;73263;50.882;5.984;2023-12-04T06:29:08;4.27;;;1.83;;
83340;SDS011;73263;50.882;5.984;2023-12-04T06:31:34;7.78;;;2.05;;
83340;SDS011;73263;50.882;5.984;2023-12-04T06:33:59;5.70;;;1.77;;
83340;SDS011;73263;50.882;5.984;2023-12-04T06:36:25;7.20;;;1.90;;
83340;SDS011;73263;50.882;5.984;2023-12-04T06:38:51;4.77;;;2.20;;
83340;SDS011;73263;50.882;5.984;2023-12-04T06:41:17;4.82;;;1.90;;
83340;SDS011;73263;50.882;5.984;2023-12-04T06:43:43;7.03;;;2.10;;
83340;SDS011;73263;50.882;5.984;2023-12-04T06:46:09;6.60;;;2.13;;
83340;SDS011;73263;50.882;5.984;2023-12-04T06:48:35;5.65;;;1.83;;
83340;SDS011;73263;50.882;5.984;2023-12-04T06:51:01;4.03;;;2.07;;
83340;SDS011;73263;50.882;5.984;2023-12-04T06:53:26;4.90;;;2.00;;
83340;SDS011;73263;50.882;5.984;2023-12-04T06:55:52;8.32;;;2.00;;
83340;SDS011;73263;50.882;5.984;2023-12-04T06:58:17;4.60;;;2.00;;
83340;SDS011;73263;50.882;5.984;2023-12-04T07:00:43;5.27;;;2.00;;
83340;SDS011;73263;50.882;5.984;2023-12-04T07:03:08;4.37;;;1.97;;
83340;SDS011;73263;50.882;5.984;2023-12-04T07:05:34;4.37;;;2.13;;
83340;SDS011;73263;50.882;5.984;2023-12-04T07:07:59;5.83;;;2.10;;
83340;SDS011;73263;50.882;5.984;2023-12-04T07:10:24;5.23;;;1.80;;
83340;SDS011;73263;50.882;5.984;2023-12-04T07:12:50;4.00;;;1.97;;
83340;SDS011;73263;50.882;5.984;2023-12-04T07:15:15;3.60;;;1.60;;
83340;SDS011;73263;50.882;5.984;2023-12-04T07:17:40;4.22;;;1.70;;
83340;SDS011;73263;50.882;5.984;2023-12-04T07:20:06;5.87;;;2.10;;
83340;SDS011;73263;50.882;5.984;2023-12-04T07:22:33;4.30;;;1.85;;
83340;SDS011;73263;50.882;5.984;2023-12-04T07:24:59;4.27;;;1.80;;
83340;SDS011;73263;50.882;5.984;2023-12-04T07:27:25;10.00;;;2.20;;
83340;SDS011;73263;50.882;5.984;2023-12-04T07:29:50;3.55;;;1.85;;
83340;SDS011;73263;50.882;5.984;2023-12-04T07:32:15;3.77;;;1.87;;
83340;SDS011;73263;50.882;5.984;2023-12-04T07:34:43;4.50;;;1.85;;
83340;SDS011;73263;50.882;5.984;2023-12-04T07:37:08;7.73;;;1.90;;
83340;SDS011;73263;50.882;5.984;2023-12-04T07:39:33;3.07;;;1.50;;
83340;SDS011;73263;50.882;5.984;2023-12-04T07:41:59;3.85;;;1.80;;
83340;SDS011;73263;50.882;5.984;2023-12-04T07:44:24;5.07;;;1.70;;
83340;SDS011;73263;50.882;5.984;2023-12-04T07:46:50;4.47;;;1.50;;
83340;SDS011;73263;50.882;5.984;2023-12-04T07:49:15;4.47;;;1.60;;
83340;SDS011;73263;50.882;5.984;2023-12-04T07:51:40;5.90;;;1.60;;
83340;SDS011;73263;50.882;5.984;2023-12-04T07:54:05;4.40;;;1.47;;
83340;SDS011;73263;50.882;5.984;2023-12-04T07:56:31;5.45;;;1.65;;
83340;SDS011;73263;50.882;5.984;2023-12-04T07:58:56;3.97;;;1.60;;
83340;SDS011;73263;50.882;5.984;2023-12-04T08:01:23;4.30;;;1.87;;
83340;SDS011;73263;50.882;5.984;2023-12-04T08:03:48;6.70;;;1.40;;
83340;SDS011;73263;50.882;5.984;2023-12-04T08:06:14;6.77;;;1.50;;
83340;SDS011;73263;50.882;5.984;2023-12-04T08:08:40;6.75;;;1.42;;
83340;SDS011;73263;50.882;5.984;2023-12-04T08:11:06;4.87;;;1.50;;
83340;SDS011;73263;50.882;5.984;2023-12-04T08:13:34;6.97;;;1.67;;
83340;SDS011;73263;50.882;5.984;2023-12-04T08:16:00;5.57;;;1.57;;
83340;SDS011;73263;50.882;5.984;2023-12-04T08:18:25;6.17;;;1.70;;
83340;SDS011;73263;50.882;5.984;2023-12-04T08:20:51;3.83;;;1.48;;
83340;SDS011;73263;50.882;5.984;2023-12-04T08:23:16;6.40;;;1.57;;
83340;SDS011;73263;50.882;5.984;2023-12-04T08:25:42;2.87;;;1.30;;
83340;SDS011;73263;50.882;5.984;2023-12-04T08:28:07;4.03;;;1.38;;
83340;SDS011;73263;50.882;5.984;2023-12-04T08:30:33;7.07;;;1.93;;
83340;SDS011;73263;50.882;5.984;2023-12-04T08:32:59;7.55;;;1.50;;
83340;SDS011;73263;50.882;5.984;2023-12-04T08:35:24;4.97;;;1.30;;
83340;SDS011;73263;50.882;5.984;2023-12-04T08:37:49;4.80;;;1.23;;
83340;SDS011;73263;50.882;5.984;2023-12-04T08:40:15;4.47;;;1.30;;
83340;SDS011;73263;50.882;5.984;2023-12-04T08:42:40;5.43;;;1.50;;
83340;SDS011;73263;50.882;5.984;2023-12-04T08:45:06;7.20;;;1.50;;
83340;SDS011;73263;50.882;5.984;2023-12-04T08:47:31;5.07;;;1.30;;
83340;SDS011;73263;50.882;5.984;2023-12-04T09:12:28;6.28;;;1.60;;
83340;SDS011;73263;50.882;5.984;2023-12-04T09:14:54;5.40;;;1.43;;
83340;SDS011;73263;50.882;5.984;2023-12-04T09:17:19;4.77;;;1.40;;
83340;SDS011;73263;50.882;5.984;2023-12-04T09:19:45;6.05;;;1.75;;
83340;SDS011;73263;50.882;5.984;2023-12-04T09:22:11;4.03;;;1.50;;
83340;SDS011;73263;50.882;5.984;2023-12-04T09:24:36;5.37;;;1.27;;
83340;SDS011;73263;50.882;5.984;2023-12-04T09:27:01;5.97;;;1.57;;
83340;SDS011;73263;50.882;5.984;2023-12-04T09:29:27;5.37;;;1.70;;
83340;SDS011;73263;50.882;5.984;2023-12-04T09:31:52;5.27;;;1.50;;
83340;SDS011;73263;50.882;5.984;2023-12-04T09:34:18;3.70;;;1.38;;
83340;SDS011;73263;50.882;5.984;2023-12-04T09:36:45;4.28;;;1.60;;
83340;SDS011;73263;50.882;5.984;2023-12-04T09:39:11;4.73;;;1.53;;
83340;SDS011;73263;50.882;5.984;2023-12-04T09:41:37;4.47;;;1.50;;
83340;SDS011;73263;50.882;5.984;2023-12-04T09:44:03;4.30;;;1.42;;
83340;SDS011;73263;50.882;5.984;2023-12-04T09:46:29;4.28;;;1.52;;
83340;SDS011;73263;50.882;5.984;2023-12-04T09:48:54;5.73;;;1.33;;
83340;SDS011;73263;50.882;5.984;2023-12-04T09:51:19;4.83;;;1.67;;
83340;SDS011;73263;50.882;5.984;2023-12-04T09:53:46;4.93;;;1.40;;
83340;SDS011;73263;50.882;5.984;2023-12-04T09:56:12;6.33;;;1.80;;
83340;SDS011;73263;50.882;5.984;2023-12-04T09:58:39;4.82;;;1.73;;
83340;SDS011;73263;50.882;5.984;2023-12-04T10:01:05;3.42;;;1.35;;
83340;SDS011;73263;50.882;5.984;2023-12-04T10:03:31;5.43;;;1.63;;
83340;SDS011;73263;50.882;5.984;2023-12-04T10:05:58;2.57;;;1.23;;
83340;SDS011;73263;50.882;5.984;2023-12-04T10:08:23;5.35;;;1.40;;
83340;SDS011;73263;50.882;5.984;2023-12-04T10:10:49;3.20;;;1.27;;
83340;SDS011;73263;50.882;5.984;2023-12-04T10:13:14;3.70;;;1.33;;
83340;SDS011;73263;50.882;5.984;2023-12-04T10:15:49;5.63;;;1.30;;
83340;SDS011;73263;50.882;5.984;2023-12-04T10:18:29;4.25;;;1.30;;
83340;SDS011;73263;50.882;5.984;2023-12-04T10:20:56;3.38;;;1.40;;
83340;SDS011;73263;50.882;5.984;2023-12-04T10:23:21;5.35;;;1.30;;
83340;SDS011;73263;50.882;5.984;2023-12-04T10:25:50;4.13;;;1.30;;
83340;SDS011;73263;50.882;5.984;2023-12-04T10:28:16;2.67;;;1.13;;
83340;SDS011;73263;50.882;5.984;2023-12-04T10:30:42;5.38;;;1.10;;
83340;SDS011;73263;50.882;5.984;2023-12-04T10:33:07;3.80;;;1.63;;
83340;SDS011;73263;50.882;5.984;2023-12-04T10:35:33;3.10;;;1.33;;
83340;SDS011;73263;50.882;5.984;2023-12-04T10:38:03;4.78;;;1.30;;
83340;SDS011;73263;50.882;5.984;2023-12-04T10:40:30;4.63;;;1.27;;
83340;SDS011;73263;50.882;5.984;2023-12-04T10:45:37;7.60;;;1.48;;
83340;SDS011;73263;50.882;5.984;2023-12-04T10:48:04;3.35;;;1.30;;
83340;SDS011;73263;50.882;5.984;2023-12-04T10:50:34;3.08;;;1.35;;
83340;SDS011;73263;50.882;5.984;2023-12-04T10:53:03;4.50;;;1.13;;
83340;SDS011;73263;50.882;5.984;2023-12-04T10:55:30;3.45;;;1.33;;
83340;SDS011;73263;50.882;5.984;2023-12-04T10:57:56;5.35;;;1.58;;
83340;SDS011;73263;50.882;5.984;2023-12-04T11:00:21;5.13;;;1.70;;
83340;SDS011;73263;50.882;5.984;2023-12-04T11:02:47;2.93;;;1.20;;
83340;SDS011;73263;50.882;5.984;2023-12-04T11:05:14;9.30;;;1.77;;
83340;SDS011;73263;50.882;5.984;2023-12-04T11:07:53;6.95;;;1.60;;
83340;SDS011;73263;50.882;5.984;2023-12-04T11:10:21;3.30;;;1.40;;
83340;SDS011;73263;50.882;5.984;2023-12-04T11:12:48;3.85;;;1.10;;
83340;SDS011;73263;50.882;5.984;2023-12-04T11:15:19;5.07;;;1.45;;
83340;SDS011;73263;50.882;5.984;2023-12-04T11:17:47;4.35;;;1.60;;
83340;SDS011;73263;50.882;5.984;2023-12-04T11:20:16;3.80;;;1.50;;
83340;SDS011;73263;50.882;5.984;2023-12-04T11:22:43;6.63;;;1.67;;
83340;SDS011;73263;50.882;5.984;2023-12-04T11:25:10;4.13;;;1.75;;
83340;SDS011;73263;50.882;5.984;2023-12-04T11:27:38;4.70;;;1.55;;
83340;SDS011;73263;50.882;5.984;2023-12-04T11:30:03;6.10;;;1.60;;
83340;SDS011;73263;50.882;5.984;2023-12-04T11:32:31;27.48;;;16.05;;
83340;SDS011;73263;50.882;5.984;2023-12-04T11:34:59;83.07;;;49.57;;
83340;SDS011;73263;50.882;5.984;2023-12-04T11:37:25;60.08;;;36.25;;
83340;SDS011;73263;50.882;5.984;2023-12-04T11:39:51;42.55;;;22.73;;
83340;SDS011;73263;50.882;5.984;2023-12-04T11:42:23;76.72;;;44.38;;
83340;SDS011;73263;50.882;5.984;2023-12-04T11:44:49;71.55;;;42.40;;
83340;SDS011;73263;50.882;5.984;2023-12-04T11:47:18;76.10;;;46.30;;
83340;SDS011;73263;50.882;5.984;2023-12-04T11:49:44;74.50;;;44.42;;
83340;SDS011;73263;50.882;5.984;2023-12-04T11:52:09;74.85;;;44.80;;
83340;SDS011;73263;50.882;5.984;2023-12-04T11:57:32;77.05;;;46.47;;
83340;SDS011;73263;50.882;5.984;2023-12-04T12:05:19;76.15;;;44.83;;
83340;SDS011;73263;50.882;5.984;2023-12-04T12:07:48;77.35;;;45.10;;
83340;SDS011;73263;50.882;5.984;2023-12-04T12:10:14;71.30;;;42.47;;
83340;SDS011;73263;50.882;5.984;2023-12-04T12:12:40;72.43;;;42.67;;
83340;SDS011;73263;50.882;5.984;2023-12-04T12:15:09;67.33;;;40.10;;
83340;SDS011;73263;50.882;5.984;2023-12-04T12:17:38;66.95;;;36.22;;
83340;SDS011;73263;50.882;5.984;2023-12-04T12:20:08;67.80;;;39.35;;
83340;SDS011;73263;50.882;5.984;2023-12-04T12:22:37;71.40;;;38.05;;
83340;SDS011;73263;50.882;5.984;2023-12-04T12:25:09;68.90;;;38.95;;
83340;SDS011;73263;50.882;5.984;2023-12-04T12:27:36;62.87;;;37.27;;
83340;SDS011;73263;50.882;5.984;2023-12-04T12:30:02;68.57;;;39.55;;
83340;SDS011;73263;50.882;5.984;2023-12-04T12:32:29;64.45;;;40.25;;
83340;SDS011;73263;50.882;5.984;2023-12-04T12:34:57;62.50;;;35.97;;
83340;SDS011;73263;50.882;5.984;2023-12-04T12:37:23;62.43;;;36.23;;
83340;SDS011;73263;50.882;5.984;2023-12-04T12:39:48;67.60;;;36.37;;
83340;SDS011;73263;50.882;5.984;2023-12-04T12:42:22;63.00;;;35.00;;
83340;SDS011;73263;50.882;5.984;2023-12-04T12:44:47;60.47;;;35.80;;
83340;SDS011;73263;50.882;5.984;2023-12-04T12:47:14;55.63;;;34.43;;
83340;SDS011;73263;50.882;5.984;2023-12-04T12:49:40;55.58;;;35.13;;
83340;SDS011;73263;50.882;5.984;2023-12-04T12:52:05;60.73;;;35.30;;
83340;SDS011;73263;50.882;5.984;2023-12-04T12:54:33;58.35;;;35.20;;
83340;SDS011;73263;50.882;5.984;2023-12-04T12:56:59;60.95;;;35.40;;
83340;SDS011;73263;50.882;5.984;2023-12-04T12:59:25;52.97;;;34.27;;
83340;SDS011;73263;50.882;5.984;2023-12-04T13:01:50;63.00;;;35.40;;
83340;SDS011;73263;50.882;5.984;2023-12-04T13:04:17;57.80;;;34.50;;
83340;SDS011;73263;50.882;5.984;2023-12-04T13:06:42;56.00;;;33.80;;
83340;SDS011;73263;50.882;5.984;2023-12-04T13:09:08;55.47;;;33.70;;
83340;SDS011;73263;50.882;5.984;2023-12-04T13:11:33;53.40;;;33.03;;
83340;SDS011;73263;50.882;5.984;2023-12-04T13:13:59;58.10;;;32.00;;
83340;SDS011;73263;50.882;5.984;2023-12-04T13:16:24;55.50;;;33.20;;
83340;SDS011;73263;50.882;5.984;2023-12-04T13:18:50;52.57;;;32.10;;
83340;SDS011;73263;50.882;5.984;2023-12-04T13:21:15;55.63;;;33.03;;
83340;SDS011;73263;50.882;5.984;2023-12-04T13:23:41;55.33;;;32.47;;
83340;SDS011;73263;50.882;5.984;2023-12-04T13:26:06;50.87;;;31.57;;
83340;SDS011;73263;50.882;5.984;2023-12-04T13:28:35;51.50;;;31.15;;
83340;SDS011;73263;50.882;5.984;2023-12-04T13:31:02;50.55;;;31.90;;
83340;SDS011;73263;50.882;5.984;2023-12-04T13:33:28;49.33;;;30.23;;
83340;SDS011;73263;50.882;5.984;2023-12-04T13:35:53;47.83;;;29.87;;
83340;SDS011;73263;50.882;5.984;2023-12-04T13:38:19;48.27;;;30.73;;
83340;SDS011;73263;50.882;5.984;2023-12-04T13:40:44;45.03;;;28.77;;
83340;SDS011;73263;50.882;5.984;2023-12-04T13:43:24;49.33;;;29.75;;
83340;SDS011;73263;50.882;5.984;2023-12-04T13:46:08;44.17;;;28.17;;
83340;SDS011;73263;50.882;5.984;2023-12-04T13:48:35;45.15;;;28.30;;
83340;SDS011;73263;50.882;5.984;2023-12-04T13:51:00;46.00;;;28.53;;
83340;SDS011;73263;50.882;5.984;2023-12-04T13:53:26;48.20;;;28.60;;
83340;SDS011;73263;50.882;5.984;2023-12-04T13:55:55;47.20;;;28.42;;
83340;SDS011;73263;50.882;5.984;2023-12-04T13:58:26;41.55;;;27.40;;
83340;SDS011;73263;50.882;5.984;2023-12-04T14:01:04;42.08;;;26.45;;
83340;SDS011;73263;50.882;5.984;2023-12-04T14:03:42;39.93;;;26.73;;
83340;SDS011;73263;50.882;5.984;2023-12-04T14:06:08;43.15;;;25.92;;
83340;SDS011;73263;50.882;5.984;2023-12-04T14:08:34;41.90;;;25.60;;
83340;SDS011;73263;50.882;5.984;2023-12-04T14:11:00;40.97;;;25.80;;
83340;SDS011;73263;50.882;5.984;2023-12-04T14:13:26;39.33;;;25.93;;
83340;SDS011;73263;50.882;5.984;2023-12-04T14:15:52;42.00;;;25.25;;
83340;SDS011;73263;50.882;5.984;2023-12-04T14:18:17;39.30;;;24.73;;
83340;SDS011;73263;50.882;5.984;2023-12-04T14:20:42;42.63;;;25.13;;
83340;SDS011;73263;50.882;5.984;2023-12-04T14:23:08;37.73;;;24.83;;
83340;SDS011;73263;50.882;5.984;2023-12-04T14:25:33;41.27;;;24.63;;
83340;SDS011;73263;50.882;5.984;2023-12-04T14:27:58;40.10;;;24.23;;
83340;SDS011;73263;50.882;5.984;2023-12-04T14:30:24;35.67;;;25.23;;
83340;SDS011;73263;50.882;5.984;2023-12-04T14:32:52;36.83;;;24.90;;
83340;SDS011;73263;50.882;5.984;2023-12-04T14:35:17;37.63;;;23.85;;
83340;SDS011;73263;50.882;5.984;2023-12-04T14:37:43;37.30;;;23.23;;
83340;SDS011;73263;50.882;5.984;2023-12-04T14:40:08;36.20;;;23.47;;
83340;SDS011;73263;50.882;5.984;2023-12-04T14:42:35;31.75;;;21.75;;
83340;SDS011;73263;50.882;5.984;2023-12-04T14:45:01;38.63;;;24.30;;
83340;SDS011;73263;50.882;5.984;2023-12-04T14:47:27;36.80;;;23.23;;
83340;SDS011;73263;50.882;5.984;2023-12-04T14:49:53;33.73;;;22.67;;
83340;SDS011;73263;50.882;5.984;2023-12-04T14:52:20;34.13;;;22.42;;
83340;SDS011;73263;50.882;5.984;2023-12-04T14:54:47;34.72;;;22.60;;
83340;SDS011;73263;50.882;5.984;2023-12-04T14:57:24;32.42;;;21.30;;
83340;SDS011;73263;50.882;5.984;2023-12-04T15:00:05;34.20;;;21.98;;
83340;SDS011;73263;50.882;5.984;2023-12-04T15:02:34;30.47;;;20.60;;
83340;SDS011;73263;50.882;5.984;2023-12-04T15:05:19;33.40;;;20.52;;